Time;durP1;ratioP1;P1;durP2;ratioP2;P2;SDS_P1;SDS_P2;PMS_P1;PMS_P2;Temp;Humidity;BMP_temperature;BMP_pressure;BME280_temperature;BME280_humidity;BME280_pressure;Samples;Min_cycle;Max_cycle;Signal;HPM_P1;HPM_P2
2021/06/24 00:01:19;;;;;;;12.35;7.22;;;;;;;15.63;49.07;95835.16;5059663;28;20469;-68
2021/06/24 00:03:45;;;;;;;11.90;6.40;;;;;;;15.52;49.34;95830.38;5061434;28;20109;-68
2021/06/24 00:06:10;;;;;;;11.75;7.07;;;;;;;15.46;49.58;95830.19;5056501;28;20161;-68
2021/06/24 00:08:35;;;;;;;12.80;8.27;;;;;;;15.36;49.56;95829.72;5062288;28;20148;-68
2021/06/24 00:11:02;;;;;;;13.10;6.95;;;;;;;15.53;49.38;95826.69;5059647;28;20077;-69
2021/06/24 00:13:28;;;;;;;8.65;5.82;;;;;;;15.70;48.46;95827.13;5056683;28;20077;-69
2021/06/24 00:15:53;;;;;;;9.80;6.40;;;;;;;15.67;48.66;95828.38;5059847;28;20116;-69
2021/06/24 00:18:19;;;;;;;10.57;5.88;;;;;;;15.70;48.75;95825.28;5059879;28;20534;-69
2021/06/24 00:20:45;;;;;;;10.23;5.43;;;;;;;15.74;48.60;95818.47;5057263;28;20127;-69
2021/06/24 00:23:10;;;;;;;13.38;7.82;;;;;;;15.63;48.82;95816.38;5074251;28;20089;-70
2021/06/24 00:25:36;;;;;;;10.88;6.75;;;;;;;15.69;48.67;95822.78;5057037;28;20073;-68
2021/06/24 00:28:02;;;;;;;10.32;5.50;;;;;;;15.73;48.40;95827.56;5054732;28;20101;-68
2021/06/24 00:30:27;;;;;;;11.85;6.32;;;;;;;15.74;48.24;95818.47;5059929;28;20483;-69
2021/06/24 00:32:53;;;;;;;13.23;6.60;;;;;;;15.58;48.83;95822.38;5057242;28;20109;-69
2021/06/24 00:35:18;;;;;;;12.88;7.20;;;;;;;15.55;48.88;95813.88;5059353;28;20123;-69
2021/06/24 00:37:44;;;;;;;10.38;6.13;;;;;;;15.54;48.75;95806.88;5059711;28;20376;-69
2021/06/24 00:40:10;;;;;;;11.30;6.10;;;;;;;15.56;48.51;95800.28;5052632;28;20110;-69
2021/06/24 00:42:36;;;;;;;13.45;6.70;;;;;;;15.57;48.66;95806.50;5050933;28;20117;-69
2021/06/24 00:45:03;;;;;;;11.88;6.38;;;;;;;15.37;48.95;95807.28;5034203;28;20104;-69
2021/06/24 00:47:29;;;;;;;13.90;8.38;;;;;;;15.35;49.13;95810.16;5028990;28;20097;-68
2021/06/24 00:49:54;;;;;;;13.43;7.95;;;;;;;15.38;49.07;95805.41;5052017;28;20127;-68
2021/06/24 00:52:20;;;;;;;9.48;6.47;;;;;;;15.38;48.84;95806.22;5061454;28;20105;-69
2021/06/24 00:54:45;;;;;;;9.70;6.20;;;;;;;15.35;49.11;95806.63;5054671;28;20097;-69
2021/06/24 00:57:11;;;;;;;10.15;7.03;;;;;;;15.32;49.04;95804.34;5054179;28;20109;-69
2021/06/24 00:59:36;;;;;;;10.05;6.05;;;;;;;15.28;49.00;95801.25;5051258;28;20111;-69
2021/06/24 01:02:03;;;;;;;13.00;7.43;;;;;;;15.13;49.57;95796.06;5053817;28;20085;-69
2021/06/24 01:04:29;;;;;;;11.35;6.32;;;;;;;15.10;49.55;95799.16;5057963;28;20117;-69
2021/06/24 01:06:54;;;;;;;11.65;6.55;;;;;;;15.13;49.38;95798.75;5049549;28;20801;-68
2021/06/24 01:09:19;;;;;;;13.10;6.25;;;;;;;15.03;49.42;95801.00;5061287;28;20120;-69
2021/06/24 01:11:45;;;;;;;12.48;7.20;;;;;;;15.00;49.68;95799.56;5052140;28;20458;-68
2021/06/24 01:14:11;;;;;;;10.55;6.57;;;;;;;15.06;49.54;95800.59;5056495;28;20100;-69
2021/06/24 01:16:37;;;;;;;11.68;6.32;;;;;;;15.07;49.31;95799.56;5058714;28;20105;-69
2021/06/24 01:19:03;;;;;;;13.18;6.63;;;;;;;15.04;49.66;95802.66;5051339;28;20574;-69
2021/06/24 01:21:29;;;;;;;11.77;6.20;;;;;;;15.02;49.54;95802.84;5047307;28;20370;-68
2021/06/24 01:23:54;;;;;;;13.00;6.63;;;;;;;15.05;49.21;95797.09;5045726;28;20207;-69
2021/06/24 01:26:21;;;;;;;10.70;6.55;;;;;;;14.97;49.49;95799.94;5045067;28;20104;-68
2021/06/24 01:28:46;;;;;;;9.15;6.50;;;;;;;14.98;49.31;95810.47;5052365;28;20120;-69
2021/06/24 01:31:12;;;;;;;10.98;6.22;;;;;;;15.01;49.44;95803.03;5053359;28;20085;-69
2021/06/24 01:33:37;;;;;;;9.52;5.90;;;;;;;15.00;49.46;95799.56;5048352;28;20081;-68
2021/06/24 01:36:05;;;;;;;14.13;6.68;;;;;;;14.90;49.53;95794.56;5045643;28;20120;-68
2021/06/24 01:38:30;;;;;;;10.73;6.13;;;;;;;14.96;49.30;95791.06;5048400;28;20116;-69
2021/06/24 01:40:55;;;;;;;12.35;6.43;;;;;;;14.96;49.39;95795.63;5050050;28;20257;-69
2021/06/24 01:43:21;;;;;;;12.30;6.55;;;;;;;14.87;49.42;95792.28;5050303;28;20128;-68
2021/06/24 01:45:49;;;;;;;9.80;6.05;;;;;;;14.93;49.33;95790.66;5060483;28;20484;-68
2021/06/24 01:48:14;;;;;;;8.85;5.78;;;;;;;14.81;49.50;95795.75;5049912;28;20200;-69
2021/06/24 01:50:40;;;;;;;9.25;6.20;;;;;;;14.81;49.65;95795.75;5050044;28;20159;-69
2021/06/24 01:53:05;;;;;;;14.88;6.90;;;;;;;14.76;49.84;95788.34;5052519;28;20465;-69
2021/06/24 01:55:34;;;;;;;10.45;6.13;;;;;;;14.84;49.50;95788.16;5048794;28;20105;-69
2021/06/24 01:58:01;;;;;;;12.80;6.80;;;;;;;14.66;50.13;95791.38;5051965;28;20077;-69
2021/06/24 02:00:26;;;;;;;10.75;6.47;;;;;;;14.76;49.66;95790.19;5050422;28;20251;-69
2021/06/24 02:02:52;;;;;;;10.38;6.00;;;;;;;14.76;49.48;95792.88;5053468;28;20073;-69
2021/06/24 02:05:17;;;;;;;12.50;6.38;;;;;;;14.70;49.56;95789.94;5052265;28;20105;-69
2021/06/24 02:07:43;;;;;;;11.93;6.05;;;;;;;14.68;49.62;95783.94;5055335;28;20096;-69
2021/06/24 02:10:10;;;;;;;8.25;5.97;;;;;;;14.70;49.46;95783.75;5049546;28;20172;-68
2021/06/24 02:12:36;;;;;;;13.15;6.75;;;;;;;14.63;49.93;95780.22;5054756;28;20517;-69
2021/06/24 02:15:04;;;;;;;9.88;6.30;;;;;;;14.66;49.65;95777.97;5056691;28;20150;-69
2021/06/24 02:17:29;;;;;;;8.32;6.05;;;;;;;14.67;49.30;95784.13;5048284;28;20345;-69
2021/06/24 02:19:55;;;;;;;10.05;6.78;;;;;;;14.59;49.68;95777.94;5045037;28;20445;-68
2021/06/24 02:22:20;;;;;;;12.27;5.90;;;;;;;14.54;50.00;95777.72;5045774;28;20864;-68
2021/06/24 02:24:46;;;;;;;9.77;6.20;;;;;;;14.57;49.70;95782.66;5046392;28;20097;-68
2021/06/24 02:27:11;;;;;;;9.10;5.82;;;;;;;14.65;49.67;95780.84;5045324;28;20081;-69
2021/06/24 02:29:37;;;;;;;10.43;5.93;;;;;;;14.66;49.46;95786.00;5057977;28;20084;-69
2021/06/24 02:32:02;;;;;;;10.05;6.18;;;;;;;14.65;49.36;95784.34;5047185;28;20112;-68
2021/06/24 02:34:28;;;;;;;9.55;5.80;;;;;;;14.60;49.62;95784.13;5047532;28;20085;-69
2021/06/24 02:36:54;;;;;;;10.05;5.88;;;;;;;14.58;49.69;95781.63;5048662;28;20110;-69
2021/06/24 02:39:19;;;;;;;9.30;6.13;;;;;;;14.42;49.81;95773.94;5049111;28;20107;-69
2021/06/24 02:41:45;;;;;;;13.38;6.85;;;;;;;14.24;50.44;95774.47;5050010;28;20088;-69
2021/06/24 02:44:10;;;;;;;11.77;6.35;;;;;;;14.13;50.99;95775.84;5048883;28;20187;-69
2021/06/24 02:46:36;;;;;;;11.82;6.93;;;;;;;13.51;52.30;95790.63;5053936;28;20089;-68
2021/06/24 02:49:01;;;;;;;9.45;6.80;;;;;;;13.41;52.78;95784.75;5052989;28;20159;-69
2021/06/24 02:51:27;;;;;;;12.60;7.30;;;;;;;13.13;53.33;95775.63;5056119;28;20512;-68
2021/06/24 02:53:52;;;;;;;12.60;7.00;;;;;;;12.87;54.59;95776.16;5062143;28;20542;-69
2021/06/24 02:56:21;;;;;;;11.93;7.03;;;;;;;12.77;54.85;95771.13;5056298;28;20183;-68
2021/06/24 02:58:47;;;;;;;11.35;7.10;;;;;;;13.29;53.59;95771.06;5052680;28;20565;-68
2021/06/24 03:01:12;;;;;;;9.13;5.40;;;;;;;13.50;52.57;95772.88;5059470;28;20104;-69
2021/06/24 03:03:37;;;;;;;12.10;6.72;;;;;;;13.54;52.26;95773.34;5055676;28;20101;-69
2021/06/24 03:06:03;;;;;;;10.07;6.47;;;;;;;13.63;52.32;95774.84;5059917;28;20123;-68
2021/06/24 03:08:28;;;;;;;11.02;6.63;;;;;;;13.68;52.09;95764.41;5052897;28;20109;-68
2021/06/24 03:10:55;;;;;;;13.20;7.38;;;;;;;13.64;52.29;95767.66;5060468;28;20073;-69
2021/06/24 03:13:21;;;;;;;11.60;7.07;;;;;;;13.73;52.18;95765.69;5053177;28;20109;-69
2021/06/24 03:15:46;;;;;;;9.02;5.72;;;;;;;13.79;51.46;95768.41;5060677;28;20117;-69
2021/06/24 03:18:12;;;;;;;11.20;6.15;;;;;;;13.85;51.59;95773.97;5054754;28;20101;-68
2021/06/24 03:20:37;;;;;;;8.93;6.28;;;;;;;13.84;51.96;95773.19;5049455;28;20249;-68
2021/06/24 03:23:03;;;;;;;10.15;5.63;;;;;;;13.85;51.39;95769.47;5070714;28;20100;-68
2021/06/24 03:25:28;;;;;;;8.52;6.03;;;;;;;13.93;51.22;95768.50;5049497;28;20105;-68
2021/06/24 03:27:54;;;;;;;10.00;6.88;;;;;;;13.93;50.95;95760.47;5046666;28;20097;-68
2021/06/24 03:30:20;;;;;;;9.55;6.10;;;;;;;13.99;50.70;95767.75;5060810;28;20563;-69
2021/06/24 03:32:46;;;;;;;8.25;5.15;;;;;;;14.02;51.20;95763.84;5048476;28;20113;-69
2021/06/24 03:35:11;;;;;;;12.23;7.18;;;;;;;13.94;51.38;95765.63;5051586;28;20105;-69
2021/06/24 03:37:37;;;;;;;11.07;6.22;;;;;;;13.94;51.27;95762.97;5049427;28;20136;-68
2021/06/24 03:40:06;;;;;;;10.45;6.43;;;;;;;13.81;51.57;95761.00;5053855;28;20192;-68
2021/06/24 03:42:32;;;;;;;9.23;6.30;;;;;;;13.92;51.08;95759.66;5050211;28;20235;-69
2021/06/24 03:44:57;;;;;;;7.95;6.38;;;;;;;13.87;51.06;95753.22;5050574;28;20582;-68
2021/06/24 03:47:23;;;;;;;11.30;7.55;;;;;;;13.37;52.10;95754.91;5050010;28;20089;-68
2021/06/24 03:49:48;;;;;;;10.68;6.78;;;;;;;13.46;52.53;95755.56;5071642;28;20084;-68
2021/06/24 03:52:14;;;;;;;8.48;5.63;;;;;;;13.81;51.72;95757.50;5062809;28;20115;-68
2021/06/24 03:54:39;;;;;;;10.32;6.97;;;;;;;13.98;51.36;95752.72;5054117;28;20104;-69
2021/06/24 03:57:05;;;;;;;14.90;7.30;;;;;;;14.07;51.09;95751.53;5058501;28;20111;-68
2021/06/24 03:59:30;;;;;;;9.00;5.57;;;;;;;14.19;50.90;95743.78;5040257;28;20073;-68
2021/06/24 04:01:56;;;;;;;10.90;6.50;;;;;;;14.23;50.79;95746.88;5051667;28;20077;-69
2021/06/24 04:04:21;;;;;;;8.52;5.78;;;;;;;14.33;50.69;95744.66;5058240;28;20124;-69
2021/06/24 04:06:46;;;;;;;16.83;5.90;;;;;;;14.51;49.98;95750.50;5063234;28;20219;-69
2021/06/24 04:09:12;;;;;;;10.18;6.05;;;;;;;14.61;49.88;95750.13;5054814;28;20113;-69
2021/06/24 04:11:37;;;;;;;8.48;5.57;;;;;;;14.68;49.70;95754.47;5063391;28;20894;-69
2021/06/24 04:14:03;;;;;;;12.48;7.10;;;;;;;14.72;49.68;95752.19;5053920;28;20085;-69
2021/06/24 04:16:28;;;;;;;8.57;5.93;;;;;;;14.90;49.39;95754.38;5053186;28;20120;-69
2021/06/24 04:18:54;;;;;;;15.13;6.60;;;;;;;15.06;49.00;95761.19;5053434;28;20088;-69
2021/06/24 04:21:19;;;;;;;10.43;5.88;;;;;;;15.18;48.94;95760.59;5050454;28;20101;-69
2021/06/24 04:23:45;;;;;;;11.15;5.97;;;;;;;15.24;48.57;95760.59;5049644;28;20105;-69
2021/06/24 04:26:10;;;;;;;8.52;5.85;;;;;;;15.31;48.75;95759.78;5051916;28;20131;-69
2021/06/24 04:28:36;;;;;;;9.38;6.00;;;;;;;15.39;48.62;95759.59;5051699;28;20455;-69
2021/06/24 04:31:01;;;;;;;8.65;5.13;;;;;;;15.51;48.42;95759.81;5069698;28;20085;-69
2021/06/24 04:33:27;;;;;;;12.27;6.10;;;;;;;15.49;48.44;95753.81;5055085;28;20490;-69
2021/06/24 04:35:52;;;;;;;11.68;6.18;;;;;;;15.59;47.83;95761.47;5049679;28;20105;-69
2021/06/24 04:38:17;;;;;;;7.88;5.22;;;;;;;15.61;48.06;95754.06;5050336;28;20085;-69
2021/06/24 04:40:43;;;;;;;12.80;5.63;;;;;;;15.57;48.21;95750.16;5053555;28;20105;-69
2021/06/24 04:43:08;;;;;;;15.07;6.57;;;;;;;15.77;48.01;95752.00;5055126;28;20121;-69
2021/06/24 04:45:34;;;;;;;9.90;5.82;;;;;;;15.89;47.64;95753.00;5055250;28;20097;-69
2021/06/24 04:47:59;;;;;;;7.90;5.32;;;;;;;15.89;47.57;95753.00;5058916;28;20096;-69
2021/06/24 04:50:25;;;;;;;12.07;6.20;;;;;;;16.00;47.17;95746.16;5054748;28;20077;-69
2021/06/24 04:52:51;;;;;;;8.88;4.97;;;;;;;16.01;47.21;95750.50;5053978;28;20112;-69
2021/06/24 04:55:16;;;;;;;7.82;5.28;;;;;;;15.97;47.13;95754.63;5055603;28;20145;-69
2021/06/24 04:57:42;;;;;;;10.23;6.22;;;;;;;16.09;47.15;95755.66;5061560;28;20073;-69
2021/06/24 05:00:08;;;;;;;9.32;6.22;;;;;;;16.24;46.78;95749.19;5053481;28;20289;-69
2021/06/24 05:02:33;;;;;;;12.45;6.90;;;;;;;16.36;46.44;95750.22;5056509;28;20084;-69
2021/06/24 05:04:59;;;;;;;10.35;6.53;;;;;;;16.38;46.26;95747.31;5055353;28;20092;-69
2021/06/24 05:07:25;;;;;;;12.32;6.40;;;;;;;16.25;46.57;95749.00;5061371;28;20085;-69
2021/06/24 05:09:51;;;;;;;11.70;5.75;;;;;;;16.24;46.50;95755.41;5056404;28;20400;-69
2021/06/24 05:12:16;;;;;;;9.52;5.68;;;;;;;16.08;46.70;95748.63;5046249;28;20120;-69
2021/06/24 05:14:42;;;;;;;11.35;5.85;;;;;;;16.25;46.44;95743.63;5046665;28;20454;-69
2021/06/24 05:17:11;;;;;;;9.93;5.35;;;;;;;16.47;45.84;95742.53;5046955;28;20117;-69
2021/06/24 05:19:37;;;;;;;12.13;6.22;;;;;;;16.45;45.99;95740.06;5061214;28;20446;-69
2021/06/24 05:22:02;;;;;;;8.20;5.05;;;;;;;16.33;45.88;95752.50;5064881;28;20092;-69
2021/06/24 05:24:28;;;;;;;9.23;5.22;;;;;;;16.11;46.65;95742.00;5047509;28;20104;-69
2021/06/24 05:26:53;;;;;;;10.60;6.30;;;;;;;16.11;46.36;95742.00;5059691;28;20077;-69
2021/06/24 05:29:19;;;;;;;10.82;6.45;;;;;;;16.09;46.63;95754.81;5040325;28;20117;-69
2021/06/24 05:31:45;;;;;;;7.43;5.38;;;;;;;16.06;47.08;95753.38;5048106;28;20100;-69
2021/06/24 05:34:10;;;;;;;9.57;4.82;;;;;;;16.20;46.66;95748.81;5052517;28;20281;-69
2021/06/24 05:36:37;;;;;;;11.05;6.22;;;;;;;16.37;45.96;95746.53;5054269;28;20109;-69
2021/06/24 05:39:02;;;;;;;12.63;6.43;;;;;;;16.50;45.71;95742.13;5047216;28;20481;-69
2021/06/24 05:41:28;;;;;;;10.85;6.00;;;;;;;16.63;46.00;95747.44;5048451;28;20390;-68
2021/06/24 05:43:54;;;;;;;8.00;5.30;;;;;;;16.64;45.49;95743.72;5036036;28;20116;-69
2021/06/24 05:46:19;;;;;;;10.10;5.68;;;;;;;16.60;45.76;95737.13;5051426;28;20348;-69
2021/06/24 05:48:45;;;;;;;12.35;6.88;;;;;;;16.79;44.99;95737.22;5043541;28;20590;-69
2021/06/24 05:51:11;;;;;;;11.63;5.32;;;;;;;16.99;45.20;95738.97;5050850;28;20084;-70
2021/06/24 05:53:37;;;;;;;10.80;5.83;;;;;;;16.99;44.72;95741.66;5047230;28;20573;-70
2021/06/24 05:56:02;;;;;;;8.65;5.80;;;;;;;17.16;44.41;95736.63;5058328;28;20117;-70
2021/06/24 05:58:31;;;;;;;10.30;5.75;;;;;;;17.26;44.25;95734.28;5046876;28;20115;-69
2021/06/24 06:00:57;;;;;;;11.20;6.57;;;;;;;17.35;43.97;95736.72;5052341;28;20104;-70
2021/06/24 06:03:24;;;;;;;12.35;6.60;;;;;;;17.26;43.85;95736.97;5046215;28;20077;-70
2021/06/24 06:05:50;;;;;;;12.65;7.65;;;;;;;17.48;43.77;95736.63;5045517;28;20510;-70
2021/06/24 06:08:16;;;;;;;12.27;7.90;;;;;;;17.44;44.11;95738.06;5056864;28;20408;-69
2021/06/24 06:10:41;;;;;;;11.77;7.68;;;;;;;17.45;43.48;95744.28;5052539;28;20290;-70
2021/06/24 06:13:07;;;;;;;10.18;6.00;;;;;;;17.56;43.55;95740.06;5056888;28;20112;-70
2021/06/24 06:15:36;;;;;;;10.38;6.47;;;;;;;17.61;43.71;95740.25;5059390;28;20448;-69
2021/06/24 06:18:15;;;;;;;10.48;5.97;;;;;;;17.65;43.91;95742.25;5051323;28;20077;-69
2021/06/24 06:20:40;;;;;;;11.85;6.70;;;;;;;17.73;43.89;95733.09;5043111;28;20105;-70
2021/06/24 06:23:06;;;;;;;12.45;7.45;;;;;;;17.86;43.30;95728.66;5058111;28;20126;-70
2021/06/24 06:25:31;;;;;;;11.30;6.90;;;;;;;17.84;42.83;95736.09;5044575;28;20378;-69
2021/06/24 06:27:57;;;;;;;13.25;8.88;;;;;;;17.62;43.61;95739.19;5045073;28;20105;-70
2021/06/24 06:30:23;;;;;;;12.40;7.80;;;;;;;17.69;43.83;95742.66;5047047;28;20168;-70
2021/06/24 06:32:49;;;;;;;12.50;7.28;;;;;;;17.84;43.42;95736.09;5046217;28;20512;-70
2021/06/24 06:35:15;;;;;;;10.23;6.18;;;;;;;18.08;43.07;95741.69;5046790;28;20138;-70
2021/06/24 06:37:40;;;;;;;10.18;6.40;;;;;;;18.27;42.52;95737.13;5046131;28;20102;-70
2021/06/24 06:40:06;;;;;;;15.63;11.10;;;;;;;18.30;41.78;95734.81;5044702;28;20105;-69
2021/06/24 06:42:31;;;;;;;13.45;8.88;;;;;;;18.46;42.50;95734.44;5046607;28;20754;-69
2021/06/24 06:44:57;;;;;;;7.47;5.60;;;;;;;18.51;42.07;95735.41;5048821;28;20518;-69
2021/06/24 06:47:22;;;;;;;12.45;8.82;;;;;;;18.52;41.76;95737.03;5047278;28;20084;-69
2021/06/24 06:49:48;;;;;;;11.00;6.65;;;;;;;18.36;42.02;95735.78;5048084;28;20077;-70
2021/06/24 06:52:13;;;;;;;10.18;7.47;;;;;;;18.63;42.00;95734.69;5046398;28;20104;-69
2021/06/24 06:54:39;;;;;;;11.10;5.90;;;;;;;18.88;41.82;95741.81;5050806;28;20088;-69
2021/06/24 06:57:05;;;;;;;9.73;6.45;;;;;;;18.71;42.45;95739.75;5051864;28;20101;-69
2021/06/24 06:59:30;;;;;;;11.02;7.63;;;;;;;18.99;41.22;95735.63;5051490;28;20664;-69
2021/06/24 07:01:56;;;;;;;19.90;14.02;;;;;;;19.05;41.02;95742.00;5044866;28;20073;-69
2021/06/24 07:04:21;;;;;;;10.68;8.07;;;;;;;19.35;40.77;95741.16;5022493;28;20476;-69
2021/06/24 07:06:47;;;;;;;14.27;9.52;;;;;;;19.52;39.75;95738.63;5053558;28;20565;-69
2021/06/24 07:09:13;;;;;;;13.40;8.55;;;;;;;19.40;40.12;95738.59;5045144;28;20182;-69
2021/06/24 07:11:38;;;;;;;15.95;11.45;;;;;;;19.52;40.28;95735.09;5041524;28;20105;-68
2021/06/24 07:14:04;;;;;;;29.83;24.48;;;;;;;19.54;39.22;95744.59;5042533;28;20081;-69
2021/06/24 07:16:29;;;;;;;23.00;18.00;;;;;;;19.72;39.72;95742.88;5056254;28;20109;-69
2021/06/24 07:18:54;;;;;;;14.98;11.30;;;;;;;19.93;39.41;95743.34;5043253;28;20093;-68
2021/06/24 07:21:20;;;;;;;17.65;12.43;;;;;;;20.05;39.06;95754.97;5060001;28;20105;-69
2021/06/24 07:23:45;;;;;;;17.60;11.95;;;;;;;20.22;39.03;95746.97;5049051;28;20120;-69
2021/06/24 07:26:11;;;;;;;16.92;11.48;;;;;;;20.36;38.08;95742.13;5024853;28;20469;-69
2021/06/24 07:28:36;;;;;;;19.13;15.25;;;;;;;20.28;37.62;95749.78;5045450;28;20101;-68
2021/06/24 07:31:02;;;;;;;13.48;9.07;;;;;;;20.36;38.27;95744.84;5051897;28;20451;-68
2021/06/24 07:33:27;;;;;;;13.05;8.23;;;;;;;20.31;39.05;95743.91;5050290;28;20113;-68
2021/06/24 07:35:53;;;;;;;11.82;7.15;;;;;;;19.94;38.15;95745.81;5046347;28;20375;-69
2021/06/24 07:38:18;;;;;;;23.00;19.33;;;;;;;19.99;37.84;95745.13;5049268;28;20087;-69
2021/06/24 07:40:44;;;;;;;21.30;16.85;;;;;;;20.05;38.20;95751.44;5055217;28;20117;-68
2021/06/24 07:43:09;;;;;;;11.30;6.38;;;;;;;20.22;38.23;95756.97;5045677;28;20154;-68
2021/06/24 07:45:35;;;;;;;14.68;9.85;;;;;;;20.03;37.91;95754.41;5056132;28;20154;-69
2021/06/24 07:48:01;;;;;;;21.02;15.45;;;;;;;20.02;37.77;95755.44;5059348;28;20217;-69
2021/06/24 07:50:26;;;;;;;16.42;10.73;;;;;;;20.01;38.97;95750.28;5052767;28;20746;-69
2021/06/24 07:52:52;;;;;;;21.77;16.10;;;;;;;19.90;38.19;95749.19;5050582;28;20853;-69
2021/06/24 07:55:17;;;;;;;11.77;8.18;;;;;;;19.99;38.84;95741.59;5075883;28;20096;-69
2021/06/24 07:57:43;;;;;;;14.88;10.57;;;;;;;19.74;38.92;95746.13;5054005;28;20577;-69
2021/06/24 08:00:09;;;;;;;16.70;13.02;;;;;;;19.58;38.56;95747.66;5055999;28;20131;-69
2021/06/24 08:02:34;;;;;;;19.45;15.05;;;;;;;19.53;39.36;95751.06;5051373;28;20128;-69
2021/06/24 08:05:00;;;;;;;18.85;14.27;;;;;;;19.24;39.91;95750.03;5046743;28;20651;-69
2021/06/24 08:07:25;;;;;;;20.85;15.55;;;;;;;19.58;38.88;95748.47;5061441;28;20081;-69
2021/06/24 08:09:52;;;;;;;18.17;12.80;;;;;;;19.38;39.87;95743.38;5053936;28;20077;-69
2021/06/24 08:12:18;;;;;;;15.80;11.20;;;;;;;19.40;39.51;95745.84;5055427;28;20112;-69
2021/06/24 08:14:43;;;;;;;14.35;10.43;;;;;;;19.72;39.67;95742.88;5050748;28;20467;-69
2021/06/24 08:17:09;;;;;;;11.70;7.07;;;;;;;19.74;39.30;95739.94;5073742;28;20513;-69
2021/06/24 08:19:34;;;;;;;16.80;11.93;;;;;;;19.92;39.02;95739.00;5049136;28;20105;-69
2021/06/24 08:22:00;;;;;;;17.33;12.93;;;;;;;19.98;38.39;95735.38;5056120;28;20131;-69
2021/06/24 08:24:26;;;;;;;16.67;11.63;;;;;;;20.16;37.81;95737.09;5054490;28;20192;-69
2021/06/24 08:26:52;;;;;;;14.30;10.98;;;;;;;20.49;37.59;95732.13;5068962;28;20469;-69
2021/06/24 08:29:17;;;;;;;16.85;12.25;;;;;;;20.38;38.01;95735.66;5054795;28;20105;-69
2021/06/24 08:31:43;;;;;;;14.27;11.02;;;;;;;20.74;37.32;95731.03;5051776;28;20127;-69
2021/06/24 08:34:08;;;;;;;15.00;11.52;;;;;;;21.03;36.84;95731.00;5048364;28;20092;-69
2021/06/24 08:36:33;;;;;;;12.48;7.55;;;;;;;21.38;36.87;95730.03;5049274;28;20111;-69
2021/06/24 08:38:59;;;;;;;11.85;7.75;;;;;;;21.75;36.00;95726.00;5047720;28;20561;-69
2021/06/24 08:41:25;;;;;;;13.23;10.60;;;;;;;22.19;35.14;95731.81;5049242;28;20370;-69
2021/06/24 08:43:52;;;;;;;12.20;6.20;;;;;;;22.25;34.39;95733.50;5049175;28;20346;-69
2021/06/24 08:46:18;;;;;;;16.25;11.88;;;;;;;22.38;34.94;95733.13;5053001;28;20073;-69
2021/06/24 08:48:43;;;;;;;17.23;13.27;;;;;;;22.60;33.50;95732.34;5049198;28;20605;-69
2021/06/24 08:51:09;;;;;;;17.45;14.82;;;;;;;22.56;33.99;95736.63;5067106;28;20163;-69
2021/06/24 08:53:34;;;;;;;13.05;10.60;;;;;;;22.99;33.38;95736.00;5043685;28;20457;-69
2021/06/24 08:56:00;;;;;;;15.57;11.20;;;;;;;22.60;33.03;95742.38;5041424;28;20609;-69
2021/06/24 08:58:25;;;;;;;12.88;10.50;;;;;;;23.03;32.78;95737.16;5030220;28;20096;-69
2021/06/24 09:00:52;;;;;;;13.20;10.40;;;;;;;23.18;32.60;95739.22;5041255;28;20188;-69
2021/06/24 09:03:19;;;;;;;15.30;11.82;;;;;;;23.24;32.90;95748.22;5022810;28;20129;-69
2021/06/24 09:06:03;;;;;;;;;;;;;;;22.89;32.47;95740.28;5050134;28;20176;-69
2021/06/24 09:08:41;;;;;;;15.05;12.20;;;;;;;22.94;32.38;95741.41;5052517;28;20095;-69
2021/06/24 09:11:22;;;;;;;14.75;11.95;;;;;;;23.41;31.88;95746.22;5048266;28;20131;-70
2021/06/24 09:13:59;;;;;;;15.60;9.70;;;;;;;23.43;32.44;95745.97;5053950;28;20252;-69
2021/06/24 09:16:27;;;;;;;13.25;10.15;;;;;;;23.50;32.43;95749.31;5053220;28;20117;-69
2021/06/24 09:19:32;;;;;;;15.50;10.20;;;;;;;23.54;32.60;95755.03;5040493;28;20476;-69
2021/06/24 09:22:02;;;;;;;15.38;9.45;;;;;;;23.41;32.58;95756.25;5053378;28;20200;-69
2021/06/24 09:24:29;;;;;;;12.27;8.50;;;;;;;23.25;32.59;95747.16;5044620;28;20293;-69
2021/06/24 09:26:55;;;;;;;10.57;7.82;;;;;;;23.19;32.42;95753.63;5046863;28;20905;-69
2021/06/24 09:29:21;;;;;;;13.02;10.73;;;;;;;23.17;32.20;95757.41;5067033;28;20256;-69
2021/06/24 09:31:56;;;;;;;7.95;4.97;;;;;;;23.19;32.47;95757.16;5040017;28;20111;-69
2021/06/24 09:34:22;;;;;;;14.85;8.85;;;;;;;23.02;32.24;95752.59;5056064;28;20281;-69
2021/06/24 09:36:50;;;;;;;14.83;12.37;;;;;;;22.82;32.85;95755.09;5049274;28;20199;-69
2021/06/24 09:39:27;;;;;;;17.08;12.75;;;;;;;22.98;32.51;95750.66;5046726;28;20082;-69
2021/06/24 09:41:56;;;;;;;12.77;8.88;;;;;;;22.82;32.52;95750.50;5056474;28;20161;-69
2021/06/24 09:44:23;;;;;;;17.40;12.63;;;;;;;22.88;32.54;95752.19;5059629;28;20117;-69
2021/06/24 09:46:49;;;;;;;15.90;11.85;;;;;;;22.91;32.55;95751.69;5066247;28;20464;-69
2021/06/24 09:49:31;;;;;;;9.80;8.27;;;;;;;22.90;32.76;95751.94;5055719;28;20162;-69
2021/06/24 09:51:57;;;;;;;13.02;9.38;;;;;;;22.78;33.00;95754.81;5028272;28;20287;-69
2021/06/24 09:54:51;;;;;;;11.93;9.20;;;;;;;22.85;33.27;95760.03;5029723;28;20077;-69
2021/06/24 09:57:24;;;;;;;15.98;13.25;;;;;;;22.61;32.94;95765.72;5051389;28;20435;-69
2021/06/24 09:59:49;;;;;;;10.95;8.98;;;;;;;22.58;33.58;95755.38;5056901;28;20120;-69
2021/06/24 10:02:15;;;;;;;16.27;10.97;;;;;;;22.62;32.90;95762.75;5052484;28;20080;-68
2021/06/24 10:04:44;;;;;;;13.40;11.13;;;;;;;22.48;33.85;95769.59;5067596;28;20211;-68
2021/06/24 10:07:12;;;;;;;14.82;11.50;;;;;;;22.44;33.61;95761.16;5051857;28;20559;-68
2021/06/24 10:09:39;;;;;;;13.23;10.15;;;;;;;22.02;33.91;95757.84;5052973;28;20656;-68
2021/06/24 10:12:05;;;;;;;;;;;;;;;21.71;34.66;95764.66;5033192;28;20111;-68
2021/06/24 10:14:30;;;;;;;10.10;4.73;;;;;;;21.95;34.60;95761.78;5045341;28;19971;-68
2021/06/24 10:16:57;;;;;;;13.13;9.85;;;;;;;21.87;34.56;95758.44;5046275;28;20151;-68
2021/06/24 10:19:36;;;;;;;12.80;9.55;;;;;;;21.82;34.59;95757.53;5052097;28;20111;-69
2021/06/24 10:22:13;;;;;;;12.05;7.50;;;;;;;22.01;34.46;95750.81;5047611;28;20297;-69
2021/06/24 10:24:42;;;;;;;12.18;8.25;;;;;;;22.19;33.90;95754.28;5060858;28;20633;-69
2021/06/24 10:27:08;;;;;;;13.55;10.68;;;;;;;22.22;34.32;95761.09;5043842;28;20542;-69
2021/06/24 10:29:53;;;;;;;8.80;6.80;;;;;;;22.67;33.09;95753.84;5023442;28;20444;-69
2021/06/24 10:32:32;;;;;;;11.32;9.40;;;;;;;22.35;33.79;95757.22;5052489;28;20728;-69
2021/06/24 10:35:02;;;;;;;13.20;10.25;;;;;;;22.46;33.73;95760.88;5057765;28;20539;-69
2021/06/24 10:37:28;;;;;;;13.80;10.45;;;;;;;22.11;34.11;95758.25;5044194;28;20105;-69
2021/06/24 10:39:56;;;;;;;12.77;8.88;;;;;;;22.23;34.02;95758.13;5056678;28;20104;-69
2021/06/24 10:42:22;;;;;;;9.60;7.75;;;;;;;22.51;33.74;95756.34;5030481;28;20136;-69
2021/06/24 10:45:01;;;;;;;8.70;6.72;;;;;;;22.76;33.40;95756.94;5051752;28;20111;-67
2021/06/24 10:47:28;;;;;;;12.90;9.23;;;;;;;22.90;32.56;95757.34;5052160;28;20147;-69
2021/06/24 10:49:53;;;;;;;10.40;8.57;;;;;;;22.62;33.39;95754.63;5049683;28;20092;-69
2021/06/24 10:52:26;;;;;;;11.45;9.75;;;;;;;22.71;33.09;95762.31;5047429;28;20113;-69
2021/06/24 10:54:55;;;;;;;13.60;8.98;;;;;;;22.09;33.77;95754.16;5054011;28;20690;-69
2021/06/24 10:57:40;;;;;;;9.32;7.25;;;;;;;22.43;33.42;95753.25;5059703;28;20369;-68
2021/06/24 11:00:33;;;;;;;11.75;8.32;;;;;;;22.25;33.66;95755.19;5045347;28;20195;-69
2021/06/24 11:03:00;;;;;;;10.07;7.57;;;;;;;22.21;33.58;95760.28;5051686;28;20073;-68
2021/06/24 11:05:32;;;;;;;9.82;6.28;;;;;;;22.51;34.04;95763.66;5047981;28;20697;-69
2021/06/24 11:07:58;;;;;;;9.52;6.80;;;;;;;22.33;33.30;95756.66;5049241;28;20545;-68
2021/06/24 11:10:25;;;;;;;9.60;7.07;;;;;;;22.38;33.23;95759.44;5030674;28;20564;-68
2021/06/24 11:12:59;;;;;;;8.68;6.07;;;;;;;22.49;33.44;95757.66;5059905;28;20531;-69
2021/06/24 11:15:47;;;;;;;20.85;15.75;;;;;;;22.49;33.23;95758.50;5030869;28;20101;-68
2021/06/24 11:18:45;;;;;;;12.68;10.15;;;;;;;22.25;33.49;95753.31;5070818;28;20069;-69
2021/06/24 11:21:13;;;;;;;18.17;12.93;;;;;;;22.22;33.78;95755.69;5054474;28;20115;-69
2021/06/24 11:24:11;;;;;;;9.00;5.38;;;;;;;22.44;33.54;95754.88;5050661;28;20121;-68
2021/06/24 11:26:39;;;;;;;18.20;12.20;;;;;;;22.24;34.05;95750.84;5054155;28;20623;-69